Terminal Aerodrome Forecast
Issued by NWS Bismarck, ND

Home | Current Version | Previous Version | Graphics & Text | Print | Product List | Glossary On
Versions: 1 2 3 4 5 6 7 8 9 10 11 12 13 14 15 16 17 18 19 20 21
190
FTUS43 KBIS 180930 AAB
TAFBIS
TAF AMD
KBIS 180930Z 1810/1906 08008KT P6SM -SHRA SCT050 BKN100
     FM181200 09006KT P6SM BKN150
     FM190500 12006KT P6SM SCT250=

USA.gov is the U.S. government's official web portal to all federal, state and local government web resources and services.